createdAt,value
2017-10-11T00:00:33.629Z,11.22
2017-10-11T00:01:33.460Z,11.23
2017-10-11T00:02:33.131Z,11.13
2017-10-11T00:03:33.446Z,11.15
2017-10-11T00:04:33.438Z,11.13
2017-10-11T00:05:33.432Z,11.08
2017-10-11T00:06:33.524Z,11.1
2017-10-11T00:07:33.534Z,11.04
2017-10-11T00:08:33.515Z,11.08
2017-10-11T00:09:33.823Z,11.05
2017-10-11T00:10:33.076Z,11.1
2017-10-11T00:11:33.070Z,10.9
2017-10-11T00:12:33.487Z,10.92
2017-10-11T00:13:33.713Z,10.94
2017-10-11T00:14:33.689Z,10.87
2017-10-11T00:15:33.041Z,10.83
2017-10-11T00:16:33.034Z,10.82
2017-10-11T00:17:33.027Z,10.82
2017-10-11T00:18:33.447Z,10.87
2017-10-11T00:19:33.342Z,10.77
2017-10-11T00:20:33.328Z,10.79
2017-10-11T00:21:33.640Z,10.89
2017-10-11T00:22:33.313Z,10.77
2017-10-11T00:23:33.729Z,10.84
2017-10-11T00:24:33.396Z,10.89
2017-10-11T00:25:33.302Z,10.82
2017-10-11T00:26:32.963Z,10.84
2017-10-11T00:27:33.277Z,10.98
2017-10-11T00:28:33.049Z,10.8
2017-10-11T00:29:33.364Z,10.86
2017-10-11T00:30:32.935Z,10.82
2017-10-11T00:31:33.570Z,10.82
2017-10-11T00:32:33.665Z,10.87
2017-10-11T00:33:33.556Z,10.9
2017-10-11T00:34:33.244Z,10.84
2017-10-11T00:35:33.319Z,10.83
2017-10-11T00:36:33.537Z,10.86
2017-10-11T00:37:32.985Z,10.9
2017-10-11T00:38:32.880Z,10.89
2017-10-11T00:39:33.195Z,10.82
2017-10-11T00:40:33.284Z,10.83
2017-10-11T00:41:33.181Z,10.89
2017-10-11T00:42:33.494Z,10.94
2017-10-11T00:43:33.169Z,10.82
2017-10-11T00:44:32.841Z,10.8
2017-10-11T00:45:33.027Z,10.82
2017-10-11T00:46:33.245Z,10.8
2017-10-11T00:47:33.459Z,10.83
2017-10-11T00:48:33.451Z,10.77
2017-10-11T00:49:32.803Z,10.75
2017-10-11T00:50:33.115Z,10.68
2017-10-11T00:51:33.212Z,10.68
2017-10-11T00:52:33.199Z,10.67
2017-10-11T00:53:33.197Z,10.71
2017-10-11T00:54:32.767Z,10.69
2017-10-11T00:55:32.865Z,10.68
2017-10-11T00:56:33.078Z,10.65
2017-10-11T00:57:32.847Z,10.62
2017-10-11T00:58:33.065Z,10.69
2017-10-11T00:59:33.055Z,10.53
2017-10-11T01:00:32.726Z,10.62
2017-10-11T01:01:33.139Z,10.58
2017-10-11T01:02:32.810Z,10.71
2017-10-11T01:03:32.805Z,10.67
2017-10-11T01:04:32.897Z,10.55
2017-10-11T01:05:33.014Z,10.58
2017-10-11T01:06:33.005Z,10.51
2017-10-11T01:07:33.101Z,10.62
2017-10-11T01:08:32.994Z,10.57
2017-10-11T01:09:32.663Z,10.58
2017-10-11T01:10:32.759Z,10.53
2017-10-11T01:11:33.305Z,10.51
2017-10-11T01:12:33.063Z,10.51
2017-10-11T01:13:32.952Z,10.51
2017-10-11T01:14:32.945Z,10.55
2017-10-11T01:15:32.719Z,10.62
2017-10-11T01:16:32.933Z,10.62
2017-10-11T01:17:32.929Z,10.61
2017-10-11T01:18:33.242Z,10.57
2017-10-11T01:19:32.917Z,10.53
2017-10-11T01:20:33.326Z,10.48
2017-10-11T01:21:32.576Z,10.57
2017-10-11T01:22:32.990Z,10.49
2017-10-11T01:23:32.563Z,10.58
2017-10-11T01:24:32.557Z,10.51
2017-10-11T01:25:33.189Z,10.57
2017-10-11T01:26:32.863Z,10.58
2017-10-11T01:27:32.634Z,10.61
2017-10-11T01:28:32.996Z,10.58
2017-10-11T01:29:33.164Z,10.55
2017-10-11T01:30:32.837Z,10.49
2017-10-11T01:31:33.147Z,10.51
2017-10-11T01:32:32.916Z,10.51
2017-10-11T01:33:33.013Z,10.58
2017-10-11T01:34:32.807Z,10.53
2017-10-11T01:35:32.800Z,10.58
2017-10-11T01:36:32.471Z,10.57
2017-10-11T01:37:32.464Z,10.49
2017-10-11T01:38:32.780Z,10.57
2017-10-11T01:39:32.601Z,10.57
2017-10-11T01:40:32.769Z,10.57
2017-10-11T01:41:32.437Z,10.42
2017-10-11T01:42:32.752Z,10.46
2017-10-11T01:43:32.970Z,10.42
2017-10-11T01:44:32.415Z,10.49
2017-10-11T01:45:32.412Z,10.43
2017-10-11T01:46:32.725Z,10.48
2017-10-11T01:47:33.029Z,10.55
2017-10-11T01:48:32.809Z,10.49
2017-10-11T01:49:32.479Z,10.55
2017-10-11T01:50:32.693Z,10.49
2017-10-11T01:51:32.362Z,10.58
2017-10-11T01:52:33.002Z,10.57
2017-10-11T01:53:32.350Z,10.49
2017-10-11T01:54:32.662Z,10.53
2017-10-11T01:55:32.763Z,10.61
2017-10-11T01:56:32.968Z,10.55
2017-10-11T01:57:32.744Z,10.46
2017-10-11T01:58:32.958Z,10.49
2017-10-11T01:59:33.051Z,10.49
2017-10-11T02:00:32.949Z,10.42
2017-10-11T02:01:32.615Z,10.41
2017-10-11T02:02:32.930Z,10.48
2017-10-11T02:03:32.388Z,10.43
2017-10-11T02:04:32.370Z,10.34
2017-10-11T02:05:32.263Z,10.31
2017-10-11T02:06:32.580Z,10.28
2017-10-11T02:07:32.668Z,10.3
2017-10-11T02:08:32.662Z,10.28
2017-10-11T02:09:32.654Z,10.25
2017-10-11T02:10:32.873Z,10.28
2017-10-11T02:11:32.742Z,10.28
2017-10-11T02:12:32.540Z,10.38
2017-10-11T02:13:32.628Z,10.36
2017-10-11T02:14:32.718Z,10.43
2017-10-11T02:15:32.517Z,10.45
2017-10-11T02:16:32.184Z,10.41
2017-10-11T02:17:32.505Z,10.41
2017-10-11T02:18:32.513Z,10.39
2017-10-11T02:19:32.746Z,10.33
2017-10-11T02:20:32.486Z,10.31
2017-10-11T02:21:32.150Z,10.31
2017-10-11T02:22:32.569Z,10.21
2017-10-11T02:23:32.455Z,10.21
2017-10-11T02:24:32.451Z,10.21
2017-10-11T02:25:32.764Z,10.21
2017-10-11T02:26:32.763Z,10.25
2017-10-11T02:27:32.528Z,10.25
2017-10-11T02:28:32.740Z,10.21
2017-10-11T02:29:32.417Z,10.23
2017-10-11T02:30:32.728Z,10.27
2017-10-11T02:31:32.504Z,10.13
2017-10-11T02:32:32.173Z,10.25
2017-10-11T02:33:32.065Z,10.21
2017-10-11T02:34:32.699Z,10.21
2017-10-11T02:35:32.376Z,10.25
2017-10-11T02:36:32.055Z,10.18
2017-10-11T02:37:32.462Z,10.13
2017-10-11T02:38:32.679Z,10.18
2017-10-11T02:39:32.441Z,10.1
2017-10-11T02:40:32.338Z,10.06
2017-10-11T02:41:32.762Z,10.03
2017-10-11T02:42:32.320Z,10.03
2017-10-11T02:43:32.313Z,10.05
2017-10-11T02:44:32.311Z,10.07
2017-10-11T02:45:32.078Z,10.05
2017-10-11T02:46:32.292Z,10.02
2017-10-11T02:47:32.605Z,10.05
2017-10-11T02:48:32.277Z,10.07
2017-10-11T02:49:32.269Z,10.13
2017-10-11T02:50:32.043Z,10.21
2017-10-11T02:51:31.935Z,10.12
2017-10-11T02:52:31.930Z,10.1
2017-10-11T02:53:31.920Z,10.09
2017-10-11T02:54:32.338Z,10.2
2017-10-11T02:55:31.907Z,10.17
2017-10-11T02:56:32.218Z,10.12
2017-10-11T02:57:32.730Z,10.07
2017-10-11T02:58:32.211Z,10.15
2017-10-11T02:59:32.518Z,10.15
2017-10-11T03:00:31.870Z,10.12
2017-10-11T03:01:31.963Z,10.09
2017-10-11T03:02:32.280Z,10.05
2017-10-11T03:03:31.848Z,10.06
2017-10-11T03:04:32.606Z,10.03
2017-10-11T03:05:32.473Z,10.05
2017-10-11T03:06:31.824Z,10.09
2017-10-11T03:07:32.239Z,10.09
2017-10-11T03:08:32.556Z,10.06
2017-10-11T03:09:32.224Z,10.07
2017-10-11T03:10:32.438Z,10.18
2017-10-11T03:11:31.793Z,10.1
2017-10-11T03:12:31.782Z,10.09
2017-10-11T03:13:32.196Z,10.03
2017-10-11T03:14:31.868Z,9.92
2017-10-11T03:15:32.231Z,9.97
2017-10-11T03:16:31.762Z,9.97
2017-10-11T03:17:32.070Z,9.97
2017-10-11T03:18:32.160Z,9.91
2017-10-11T03:19:31.737Z,9.91
2017-10-11T03:20:32.024Z,9.88
2017-10-11T03:21:32.040Z,9.88
2017-10-11T03:22:31.708Z,9.88
2017-10-11T03:23:32.021Z,9.85
2017-10-11T03:24:32.439Z,9.85
2017-10-11T03:25:31.791Z,9.9
2017-10-11T03:26:31.997Z,9.87
2017-10-11T03:27:31.998Z,9.9
2017-10-11T03:28:31.987Z,9.92
2017-10-11T03:29:32.404Z,9.85
2017-10-11T03:30:32.457Z,9.85
2017-10-11T03:31:32.383Z,9.85
2017-10-11T03:32:32.070Z,9.84
2017-10-11T03:33:31.950Z,9.84
2017-10-11T03:34:32.044Z,9.76
2017-10-11T03:35:31.616Z,9.77
2017-10-11T03:36:31.705Z,9.72
2017-10-11T03:37:31.922Z,9.73
2017-10-11T03:38:32.237Z,9.7
2017-10-11T03:39:31.685Z,9.7
2017-10-11T03:40:31.996Z,9.67
2017-10-11T03:41:31.584Z,9.73
2017-10-11T03:42:31.662Z,9.76
2017-10-11T03:43:31.874Z,9.74
2017-10-11T03:44:31.648Z,9.8
2017-10-11T03:45:31.644Z,9.77
2017-10-11T03:46:31.535Z,9.7
2017-10-11T03:47:31.628Z,9.66
2017-10-11T03:48:31.520Z,9.64
2017-10-11T03:49:32.156Z,9.67
2017-10-11T03:50:31.928Z,9.72
2017-10-11T03:51:31.823Z,9.81
2017-10-11T03:52:32.235Z,9.76
2017-10-11T03:53:32.128Z,9.8
2017-10-11T03:54:31.480Z,9.81
2017-10-11T03:55:31.889Z,9.85
2017-10-11T03:56:31.784Z,9.87
2017-10-11T03:57:31.924Z,9.88
2017-10-11T03:58:31.645Z,9.88
2017-10-11T03:59:31.758Z,9.8
2017-10-11T04:00:32.085Z,9.77
2017-10-11T04:01:31.759Z,9.67
2017-10-11T04:02:31.417Z,9.63
2017-10-11T04:03:31.830Z,9.69
2017-10-11T04:04:31.402Z,9.7
2017-10-11T04:05:31.397Z,9.74
2017-10-11T04:06:31.705Z,9.76
2017-10-11T04:07:31.954Z,9.81
2017-10-11T04:08:31.793Z,9.77
2017-10-11T04:09:31.685Z,9.74
2017-10-11T04:10:31.459Z,9.85
2017-10-11T04:11:31.687Z,9.8
2017-10-11T04:12:31.664Z,9.74
2017-10-11T04:13:31.997Z,9.74
2017-10-11T04:14:31.328Z,9.77
2017-10-11T04:15:31.752Z,9.73
2017-10-11T04:16:31.415Z,9.82
2017-10-11T04:17:31.733Z,9.72
2017-10-11T04:18:31.622Z,9.67
2017-10-11T04:19:31.621Z,9.7
2017-10-11T04:20:31.285Z,9.72
2017-10-11T04:21:32.025Z,9.66
2017-10-11T04:22:31.270Z,9.56
2017-10-11T04:23:31.264Z,9.56
2017-10-11T04:24:31.895Z,9.54
2017-10-11T04:25:31.569Z,9.54
2017-10-11T04:26:31.563Z,9.56
2017-10-11T04:27:31.654Z,9.55
2017-10-11T04:28:31.559Z,9.48
2017-10-11T04:29:31.221Z,9.55
2017-10-11T04:30:31.547Z,9.58
2017-10-11T04:31:31.523Z,9.54
2017-10-11T04:32:31.621Z,9.52
2017-10-11T04:33:31.837Z,9.52
2017-10-11T04:34:31.606Z,9.58
2017-10-11T04:35:31.819Z,9.59
2017-10-11T04:36:31.590Z,9.56
2017-10-11T04:37:31.586Z,9.49
2017-10-11T04:38:31.477Z,9.56
2017-10-11T04:39:31.296Z,9.4
2017-10-11T04:40:31.559Z,9.48
2017-10-11T04:41:31.453Z,9.54
2017-10-11T04:42:31.774Z,9.48
2017-10-11T04:43:31.976Z,9.44
2017-10-11T04:44:31.899Z,9.48
2017-10-11T04:45:31.424Z,9.47
2017-10-11T04:46:31.416Z,9.52
2017-10-11T04:47:31.187Z,9.59
2017-10-11T04:48:31.178Z,9.59
2017-10-11T04:49:31.224Z,9.55
2017-10-11T04:50:31.392Z,9.56
2017-10-11T04:51:31.385Z,9.47
2017-10-11T04:52:31.050Z,9.56
2017-10-11T04:53:31.882Z,9.54
2017-10-11T04:54:31.354Z,9.54
2017-10-11T04:55:31.822Z,9.58
2017-10-11T04:56:31.666Z,9.56
2017-10-11T04:57:31.014Z,9.55
2017-10-11T04:58:31.745Z,9.54
2017-10-11T04:59:31.100Z,9.52
2017-10-11T05:00:31.730Z,9.54
2017-10-11T05:01:31.727Z,9.56
2017-10-11T05:02:31.624Z,9.58
2017-10-11T05:03:31.388Z,9.63
2017-10-11T05:04:31.289Z,9.51
2017-10-11T05:05:31.527Z,9.55
2017-10-11T05:06:31.267Z,9.63
2017-10-11T05:07:30.939Z,9.55
2017-10-11T05:08:31.251Z,9.56
2017-10-11T05:09:31.245Z,9.54
2017-10-11T05:10:31.487Z,9.55
2017-10-11T05:11:31.012Z,9.54
2017-10-11T05:12:31.653Z,9.51
2017-10-11T05:13:31.537Z,9.45
2017-10-11T05:14:31.216Z,9.45
2017-10-11T05:15:30.982Z,9.47
2017-10-11T05:16:30.873Z,9.51
2017-10-11T05:17:30.968Z,9.4
2017-10-11T05:18:31.182Z,9.39
2017-10-11T05:19:30.852Z,9.37
2017-10-11T05:20:30.843Z,9.37
2017-10-11T05:21:30.836Z,9.39
2017-10-11T05:22:30.830Z,9.33
2017-10-11T05:23:31.142Z,9.39
2017-10-11T05:24:30.917Z,9.36
2017-10-11T05:25:30.907Z,9.37
2017-10-11T05:26:30.897Z,9.34
2017-10-11T05:27:31.434Z,9.31
2017-10-11T05:28:30.785Z,9.33
2017-10-11T05:29:31.529Z,9.39
2017-10-11T05:30:30.869Z,9.44
2017-10-11T05:31:30.762Z,9.45
2017-10-11T05:32:30.758Z,9.47
2017-10-11T05:33:31.069Z,9.47
2017-10-11T05:34:30.739Z,9.48
2017-10-11T05:35:30.832Z,9.39
2017-10-11T05:36:31.045Z,9.37
2017-10-11T05:37:30.718Z,9.4
2017-10-11T05:38:31.036Z,9.4
2017-10-11T05:39:31.027Z,9.3
2017-10-11T05:40:31.438Z,9.3
2017-10-11T05:41:31.106Z,9.31
2017-10-11T05:42:31.435Z,9.27
2017-10-11T05:43:31.323Z,9.33
2017-10-11T05:44:30.663Z,9.36
2017-10-11T05:45:30.656Z,9.31
2017-10-11T05:46:30.971Z,9.36
2017-10-11T05:47:30.966Z,9.36
2017-10-11T05:48:31.061Z,9.34
2017-10-11T05:49:30.958Z,9.29
2017-10-11T05:50:31.053Z,9.36
2017-10-11T05:51:31.040Z,9.33
2017-10-11T05:52:30.933Z,9.33
2017-10-11T05:53:30.700Z,9.4
2017-10-11T05:54:31.232Z,9.34
2017-10-11T05:55:30.585Z,9.36
2017-10-11T05:56:30.899Z,9.45
2017-10-11T05:57:30.568Z,9.51
2017-10-11T05:58:31.212Z,9.48
2017-10-11T05:59:30.876Z,9.42
2017-10-11T06:00:30.549Z,9.54
2017-10-11T06:01:30.544Z,9.55
2017-10-11T06:02:30.534Z,9.51
2017-10-11T06:03:30.527Z,9.56
2017-10-11T06:04:30.618Z,9.59
2017-10-11T06:05:30.838Z,9.54
2017-10-11T06:06:30.505Z,9.54
2017-10-11T06:07:31.142Z,9.56
2017-10-11T06:08:30.592Z,9.58
2017-10-11T06:09:30.802Z,9.58
2017-10-11T06:10:30.902Z,9.55
2017-10-11T06:11:30.790Z,9.54
2017-10-11T06:12:30.468Z,9.59
2017-10-11T06:13:30.452Z,9.55
2017-10-11T06:14:30.768Z,9.55
2017-10-11T06:15:30.437Z,9.58
2017-10-11T06:16:30.761Z,9.48
2017-10-11T06:17:30.527Z,9.56
2017-10-11T06:18:30.415Z,9.59
2017-10-11T06:19:31.055Z,9.56
2017-10-11T06:20:31.047Z,9.52
2017-10-11T06:21:30.841Z,9.49
2017-10-11T06:22:30.804Z,9.52
2017-10-11T06:23:30.478Z,9.56
2017-10-11T06:24:30.696Z,9.56
2017-10-11T06:25:31.010Z,9.59
2017-10-11T06:26:30.679Z,9.55
2017-10-11T06:27:30.989Z,9.58
2017-10-11T06:28:30.860Z,9.67
2017-10-11T06:29:30.434Z,9.66
2017-10-11T06:30:30.753Z,9.64
2017-10-11T06:31:30.319Z,9.63
2017-10-11T06:32:30.631Z,9.59
2017-10-11T06:33:30.733Z,9.63
2017-10-11T06:34:30.296Z,9.7
2017-10-11T06:35:30.711Z,9.72
2017-10-11T06:36:30.698Z,9.81
2017-10-11T06:37:30.594Z,9.82
2017-10-11T06:38:30.594Z,9.72
2017-10-11T06:39:30.916Z,9.77
2017-10-11T06:40:30.676Z,9.8
2017-10-11T06:41:30.245Z,9.84
2017-10-11T06:42:30.668Z,9.82
2017-10-11T06:43:30.550Z,9.74
2017-10-11T06:44:30.974Z,9.7
2017-10-11T06:45:30.215Z,9.82
2017-10-11T06:46:30.530Z,9.88
2017-10-11T06:47:30.522Z,9.9
2017-10-11T06:48:30.391Z,9.91
2017-10-11T06:49:30.184Z,9.85
2017-10-11T06:50:30.495Z,9.99
2017-10-11T06:51:30.489Z,10.02
2017-10-11T06:52:30.483Z,10.05
2017-10-11T06:53:30.159Z,10.07
2017-10-11T06:54:30.629Z,10.02
2017-10-11T06:55:30.787Z,10.06
2017-10-11T06:56:30.455Z,10.05
2017-10-11T06:57:30.124Z,10.06
2017-10-11T06:58:30.541Z,10.1
2017-10-11T06:59:30.433Z,10.05
2017-10-11T07:00:30.429Z,10.03
2017-10-11T07:01:30.299Z,10.03
2017-10-11T07:02:30.736Z,10.02
2017-10-11T07:03:30.402Z,10.1
2017-10-11T07:04:30.071Z,10.03
2017-10-11T07:05:30.491Z,10.02
2017-10-11T07:06:30.704Z,10.12
2017-10-11T07:07:30.799Z,10.07
2017-10-11T07:08:30.384Z,10.13
2017-10-11T07:09:30.357Z,10.12
2017-10-11T07:10:30.669Z,10.12
2017-10-11T07:11:30.442Z,10.17
2017-10-11T07:12:30.334Z,10.18
2017-10-11T07:13:30.326Z,10.13
2017-10-11T07:14:30.322Z,10.31
2017-10-11T07:15:30.314Z,10.25
2017-10-11T07:16:30.306Z,10.38
2017-10-11T07:17:30.619Z,10.43
2017-10-11T07:18:30.388Z,10.49
2017-10-11T07:19:30.284Z,10.61
2017-10-11T07:20:29.956Z,10.61
2017-10-11T07:21:30.049Z,10.59
2017-10-11T07:22:30.601Z,10.61
2017-10-11T07:23:30.578Z,10.51
2017-10-11T07:24:30.023Z,10.59
2017-10-11T07:25:30.561Z,10.53
2017-10-11T07:26:30.667Z,10.53
2017-10-11T07:27:30.549Z,10.48
2017-10-11T07:28:30.637Z,10.58
2017-10-11T07:29:29.997Z,10.67
2017-10-11T07:30:29.883Z,10.64
2017-10-11T07:31:30.531Z,10.68
2017-10-11T07:32:29.968Z,10.64
2017-10-11T07:33:30.187Z,10.65
2017-10-11T07:34:29.854Z,10.65
2017-10-11T07:35:30.165Z,10.67
2017-10-11T07:36:29.836Z,10.8
2017-10-11T07:37:29.829Z,10.76
2017-10-11T07:38:30.246Z,10.9
2017-10-11T07:39:30.134Z,10.86
2017-10-11T07:40:30.334Z,10.98
2017-10-11T07:41:30.121Z,10.97
2017-10-11T07:42:30.436Z,10.94
2017-10-11T07:43:30.117Z,11.02
2017-10-11T07:44:29.879Z,11.13
2017-10-11T07:45:29.772Z,11.05
2017-10-11T07:46:30.428Z,11.08
2017-10-11T07:47:30.086Z,11.12
2017-10-11T07:48:30.402Z,11.16
2017-10-11T07:49:30.079Z,11.15
2017-10-11T07:50:30.060Z,11.1
2017-10-11T07:51:30.389Z,11.1
2017-10-11T07:52:30.048Z,11.08
2017-10-11T07:53:30.478Z,11.25
2017-10-11T07:54:30.041Z,11.22
2017-10-11T07:55:29.811Z,11.23
2017-10-11T07:56:30.028Z,11.31
2017-10-11T07:57:30.445Z,11.35
2017-10-11T07:58:30.144Z,11.34
2017-10-11T07:59:29.678Z,11.35
2017-10-11T08:00:29.994Z,11.34
2017-10-11T08:01:30.320Z,11.34
2017-10-11T08:02:29.758Z,11.4
2017-10-11T08:03:30.298Z,11.45
2017-10-11T08:04:29.965Z,11.4
2017-10-11T08:05:30.400Z,11.38
2017-10-11T08:06:29.953Z,11.52
2017-10-11T08:07:29.945Z,11.48
2017-10-11T08:08:29.615Z,11.53
2017-10-11T08:09:29.939Z,11.45
2017-10-11T08:10:30.347Z,11.53
2017-10-11T08:11:29.916Z,11.52
2017-10-11T08:12:29.584Z,11.53
2017-10-11T08:13:30.227Z,11.45
2017-10-11T08:14:29.891Z,11.56
2017-10-11T08:15:29.564Z,11.56
2017-10-11T08:16:29.556Z,11.59
2017-10-11T08:17:30.198Z,11.7
2017-10-11T08:18:30.299Z,11.68
2017-10-11T08:19:29.857Z,11.78
2017-10-11T08:20:29.847Z,11.76
2017-10-11T08:21:29.999Z,11.8
2017-10-11T08:22:29.834Z,11.83
2017-10-11T08:23:30.161Z,11.89
2017-10-11T08:24:29.821Z,11.93
2017-10-11T08:25:29.813Z,11.85
2017-10-11T08:26:29.585Z,11.97
2017-10-11T08:27:29.804Z,11.97
2017-10-11T08:28:30.115Z,12
2017-10-11T08:29:29.787Z,12.18
2017-10-11T08:30:29.454Z,12.17
2017-10-11T08:31:29.873Z,12.1
2017-10-11T08:32:29.778Z,12.14
2017-10-11T08:33:29.754Z,12.25
2017-10-11T08:34:30.172Z,12.11
2017-10-11T08:35:29.844Z,12.23
2017-10-11T08:36:29.935Z,12.18
2017-10-11T08:37:29.727Z,12.21
2017-10-11T08:38:29.820Z,12.23
2017-10-11T08:39:29.811Z,12.33
2017-10-11T08:40:29.704Z,12.29
2017-10-11T08:41:29.373Z,12.33
2017-10-11T08:42:29.366Z,12.4
2017-10-11T08:43:29.361Z,12.37
2017-10-11T08:44:29.678Z,12.47
2017-10-11T08:45:30.098Z,12.48
2017-10-11T08:46:29.348Z,12.44
2017-10-11T08:47:29.332Z,12.45
2017-10-11T08:48:29.649Z,12.44
2017-10-11T08:49:29.318Z,12.5
2017-10-11T08:50:29.961Z,12.48
2017-10-11T08:51:29.625Z,12.5
2017-10-11T08:52:29.623Z,12.57
2017-10-11T08:53:29.934Z,12.55
2017-10-11T08:54:29.706Z,12.57
2017-10-11T08:55:29.601Z,12.54
2017-10-11T08:56:29.368Z,12.53
2017-10-11T08:57:29.586Z,12.54
2017-10-11T08:58:29.594Z,12.76
2017-10-11T08:59:29.251Z,12.76
2017-10-11T09:00:29.563Z,12.76
2017-10-11T09:01:30.118Z,12.75
2017-10-11T09:02:29.229Z,12.81
2017-10-11T09:03:29.547Z,12.81
2017-10-11T09:04:29.223Z,12.86
2017-10-11T09:05:29.884Z,12.81
2017-10-11T09:06:29.349Z,12.93
2017-10-11T09:07:29.843Z,12.95
2017-10-11T09:08:29.506Z,12.99
2017-10-11T09:09:29.602Z,13.03
2017-10-11T09:10:29.814Z,13.02
2017-10-11T09:11:29.595Z,13.01
2017-10-11T09:12:29.579Z,13.08
2017-10-11T09:13:29.147Z,13.09
2017-10-11T09:14:29.477Z,13.16
2017-10-11T09:15:29.285Z,13.16
2017-10-11T09:16:29.782Z,13.16
2017-10-11T09:17:29.451Z,13.17
2017-10-11T09:18:29.538Z,13.08
2017-10-11T09:19:29.109Z,13.21
2017-10-11T09:20:29.252Z,13.24
2017-10-11T09:21:29.420Z,13.17
2017-10-11T09:22:29.087Z,13.26
2017-10-11T09:23:29.506Z,13.16
2017-10-11T09:24:29.393Z,13.19
2017-10-11T09:25:29.393Z,13.3
2017-10-11T09:26:29.057Z,13.24
2017-10-11T09:27:29.395Z,13.31
2017-10-11T09:28:29.690Z,13.26
2017-10-11T09:29:29.038Z,13.28
2017-10-11T09:30:29.554Z,13.31
2017-10-11T09:31:29.348Z,13.36
2017-10-11T09:32:29.338Z,13.39
2017-10-11T09:33:29.759Z,13.3
2017-10-11T09:34:29.429Z,13.37
2017-10-11T09:35:29.743Z,13.47
2017-10-11T09:36:29.311Z,13.47
2017-10-11T09:37:29.309Z,13.49
2017-10-11T09:38:29.621Z,13.47
2017-10-11T09:39:29.621Z,13.57
2017-10-11T09:40:29.604Z,13.58
2017-10-11T09:41:28.953Z,13.57
2017-10-11T09:42:29.594Z,13.65
2017-10-11T09:43:29.267Z,13.65
2017-10-11T09:44:29.615Z,13.62
2017-10-11T09:45:29.588Z,13.71
2017-10-11T09:46:29.442Z,13.79
2017-10-11T09:47:29.239Z,13.71
2017-10-11T09:48:28.904Z,13.79
2017-10-11T09:49:29.320Z,13.79
2017-10-11T09:50:29.636Z,13.85
2017-10-11T09:51:29.309Z,13.89
2017-10-11T09:52:29.523Z,13.85
2017-10-11T09:53:29.520Z,13.94
2017-10-11T09:54:29.187Z,13.86
2017-10-11T09:55:29.600Z,13.95
2017-10-11T09:56:29.168Z,14
2017-10-11T09:57:29.492Z,13.98
2017-10-11T09:58:29.585Z,14.03
2017-10-11T09:59:29.158Z,13.97
2017-10-11T10:00:28.824Z,13.95
2017-10-11T10:01:28.815Z,13.95
2017-10-11T10:02:29.458Z,13.97
2017-10-11T10:03:29.126Z,14.04
2017-10-11T10:04:29.116Z,14.05
2017-10-11T10:05:29.110Z,14.13
2017-10-11T10:06:29.102Z,14.15
2017-10-11T10:07:29.197Z,14.19
2017-10-11T10:08:29.415Z,14.25
2017-10-11T10:09:28.762Z,14.28
2017-10-11T10:10:29.498Z,14.36
2017-10-11T10:11:29.067Z,14.3
2017-10-11T10:12:29.063Z,14.33
2017-10-11T10:13:29.052Z,14.33
2017-10-11T10:14:29.369Z,14.43
2017-10-11T10:15:29.469Z,14.37
2017-10-11T10:16:29.036Z,14.43
2017-10-11T10:17:28.702Z,14.36
2017-10-11T10:18:29.122Z,14.33
2017-10-11T10:19:29.016Z,14.48
2017-10-11T10:20:29.006Z,14.48
2017-10-11T10:21:29.110Z,14.49
2017-10-11T10:22:29.000Z,14.59
2017-10-11T10:23:28.665Z,14.7
2017-10-11T10:24:28.980Z,14.7
2017-10-11T10:25:29.297Z,14.67
2017-10-11T10:26:29.069Z,14.74
2017-10-11T10:27:28.637Z,14.78
2017-10-11T10:28:29.414Z,14.86
2017-10-11T10:29:28.621Z,14.89
2017-10-11T10:30:28.621Z,14.92
2017-10-11T10:31:29.463Z,15
2017-10-11T10:32:28.932Z,14.99
2017-10-11T10:33:28.918Z,15.08
2017-10-11T10:34:29.237Z,15.04
2017-10-11T10:35:28.915Z,14.93
2017-10-11T10:36:29.227Z,15.04
2017-10-11T10:37:28.900Z,14.97
2017-10-11T10:38:28.885Z,15
2017-10-11T10:39:28.556Z,14.96
2017-10-11T10:40:28.873Z,15
2017-10-11T10:41:29.195Z,15.07
2017-10-11T10:42:29.179Z,15.15
2017-10-11T10:43:28.853Z,15.11
2017-10-11T10:44:28.525Z,15.15
2017-10-11T10:45:28.841Z,15.14
2017-10-11T10:46:28.509Z,15.08
2017-10-11T10:47:28.824Z,15.07
2017-10-11T10:48:28.917Z,15.23
2017-10-11T10:49:28.845Z,15.19
2017-10-11T10:50:28.803Z,15.22
2017-10-11T10:51:28.894Z,15.33
2017-10-11T10:52:28.466Z,15.35
2017-10-11T10:53:28.463Z,15.43
2017-10-11T10:54:28.555Z,15.41
2017-10-11T10:55:29.099Z,15.39
2017-10-11T10:56:28.441Z,15.41
2017-10-11T10:57:28.435Z,15.33
2017-10-11T10:58:28.771Z,15.39
2017-10-11T10:59:28.743Z,15.47
2017-10-11T11:00:28.418Z,15.54
2017-10-11T11:01:28.734Z,15.55
2017-10-11T11:02:28.726Z,15.59
2017-10-11T11:03:28.723Z,15.62
2017-10-11T11:04:29.043Z,15.72
2017-10-11T11:05:28.380Z,15.66
2017-10-11T11:06:28.376Z,15.78
2017-10-11T11:07:28.690Z,15.69
2017-10-11T11:08:28.682Z,15.72
2017-10-11T11:09:29.020Z,15.7
2017-10-11T11:10:29.013Z,15.75
2017-10-11T11:11:28.444Z,15.73
2017-10-11T11:12:29.089Z,15.78
2017-10-11T11:13:28.649Z,15.83
2017-10-11T11:14:28.644Z,15.91
2017-10-11T11:15:28.960Z,15.88
2017-10-11T11:16:28.308Z,15.85
2017-10-11T11:17:28.623Z,15.88
2017-10-11T11:18:28.617Z,15.85
2017-10-11T11:19:28.611Z,15.91
2017-10-11T11:20:28.280Z,15.92
2017-10-11T11:21:28.699Z,15.94
2017-10-11T11:22:28.266Z,15.96
2017-10-11T11:23:28.743Z,16
2017-10-11T11:24:28.254Z,16
2017-10-11T11:25:28.892Z,16.06
2017-10-11T11:26:28.664Z,16.09
2017-10-11T11:27:28.556Z,16.16
2017-10-11T11:28:28.651Z,16.18
2017-10-11T11:29:28.550Z,16.24
2017-10-11T11:30:28.215Z,16.28
2017-10-11T11:31:28.953Z,16.28
2017-10-11T11:32:28.204Z,16.44
2017-10-11T11:33:28.617Z,16.4
2017-10-11T11:34:28.509Z,16.36
2017-10-11T11:35:28.501Z,16.43
2017-10-11T11:36:28.499Z,16.4
2017-10-11T11:37:28.491Z,16.41
2017-10-11T11:38:28.485Z,16.5
2017-10-11T11:39:28.477Z,16.47
2017-10-11T11:40:28.473Z,16.37
2017-10-11T11:41:28.469Z,16.44
2017-10-11T11:42:28.135Z,16.5
2017-10-11T11:43:28.452Z,16.41
2017-10-11T11:44:28.445Z,16.54
2017-10-11T11:45:28.539Z,16.39
2017-10-11T11:46:28.755Z,16.47
2017-10-11T11:47:28.425Z,16.39
2017-10-11T11:48:28.095Z,16.49
2017-10-11T11:49:28.411Z,16.46
2017-10-11T11:50:28.828Z,16.57
2017-10-11T11:51:28.175Z,16.61
2017-10-11T11:52:28.394Z,16.46
2017-10-11T11:53:28.060Z,16.51
2017-10-11T11:54:28.630Z,16.54
2017-10-11T11:55:28.798Z,16.51
2017-10-11T11:56:28.698Z,16.62
2017-10-11T11:57:28.036Z,16.65
2017-10-11T11:58:28.029Z,16.65
2017-10-11T11:59:28.450Z,16.72
2017-10-11T12:00:28.342Z,16.72
2017-10-11T12:01:28.333Z,16.76
2017-10-11T12:02:28.751Z,16.79
2017-10-11T12:03:28.316Z,16.68
2017-10-11T12:04:28.649Z,16.73
2017-10-11T12:05:28.639Z,16.8
2017-10-11T12:06:27.976Z,16.77
2017-10-11T12:07:27.971Z,16.72
2017-10-11T12:08:28.294Z,16.77
2017-10-11T12:09:28.279Z,16.82
2017-10-11T12:10:28.272Z,16.83
2017-10-11T12:11:28.699Z,16.8
2017-10-11T12:12:27.936Z,16.87
2017-10-11T12:13:28.581Z,16.8
2017-10-11T12:14:27.925Z,16.89
2017-10-11T12:15:28.246Z,16.89
2017-10-11T12:16:28.013Z,16.91
2017-10-11T12:17:28.229Z,16.95
2017-10-11T12:18:28.223Z,16.92
2017-10-11T12:19:27.900Z,16.94
2017-10-11T12:20:28.209Z,16.99
2017-10-11T12:21:28.304Z,17.02
2017-10-11T12:22:28.293Z,16.99
2017-10-11T12:23:28.192Z,17.05
2017-10-11T12:24:28.607Z,17.13
2017-10-11T12:25:28.275Z,17.07
2017-10-11T12:26:28.268Z,17.01
2017-10-11T12:27:28.264Z,17.14
2017-10-11T12:28:27.833Z,17.14
2017-10-11T12:29:28.034Z,17.09
2017-10-11T12:30:28.717Z,17.07
2017-10-11T12:31:28.142Z,17.05
2017-10-11T12:32:27.809Z,17.07
2017-10-11T12:33:28.449Z,17.1
2017-10-11T12:34:27.794Z,17.05
2017-10-11T12:35:27.889Z,17.01
2017-10-11T12:36:28.206Z,17.1
2017-10-11T12:37:28.198Z,17.07
2017-10-11T12:38:28.099Z,17.07
2017-10-11T12:39:27.764Z,17.09
2017-10-11T12:40:28.400Z,17.28
2017-10-11T12:41:28.071Z,17.24
2017-10-11T12:42:28.165Z,17.31
2017-10-11T12:43:27.737Z,17.3
2017-10-11T12:44:28.474Z,17.27
2017-10-11T12:45:27.729Z,17.3
2017-10-11T12:46:28.372Z,17.23
2017-10-11T12:47:28.188Z,17.28
2017-10-11T12:48:28.124Z,17.24
2017-10-11T12:49:28.022Z,17.28
2017-10-11T12:50:28.026Z,17.27
2017-10-11T12:51:28.006Z,17.35
2017-10-11T12:52:28.000Z,17.32
2017-10-11T12:53:28.418Z,17.32
2017-10-11T12:54:27.989Z,17.32
2017-10-11T12:55:27.978Z,17.35
2017-10-11T12:56:28.008Z,17.3
2017-10-11T12:57:27.645Z,17.35
2017-10-11T12:58:28.297Z,17.34
2017-10-11T12:59:28.386Z,17.35
2017-10-11T13:00:27.730Z,17.46
2017-10-11T13:01:27.617Z,17.47
2017-10-11T13:02:27.935Z,17.52